createdAt,value
2019-04-26T00:00:56.244Z,99.90
2019-04-26T00:03:26.276Z,99.90
2019-04-26T00:05:55.538Z,99.90
2019-04-26T00:08:23.993Z,99.90
2019-04-26T00:10:54.022Z,99.90
2019-04-26T00:13:24.809Z,99.90
2019-04-26T00:15:55.621Z,99.90
2019-04-26T00:18:24.000Z,99.90
2019-04-26T00:20:52.388Z,99.90
2019-04-26T00:23:20.957Z,99.90
2019-04-26T00:25:49.342Z,99.90
2019-04-26T00:28:17.733Z,99.90
2019-04-26T00:30:46.117Z,99.90
2019-04-26T00:33:15.278Z,99.90
2019-04-26T00:35:47.612Z,99.90
2019-04-26T00:38:14.385Z,99.90
2019-04-26T00:40:45.008Z,99.90
2019-04-26T00:43:14.357Z,99.90
2019-04-26T00:45:43.581Z,99.90
2019-04-26T00:48:15.073Z,99.90
2019-04-26T00:50:45.858Z,99.90
2019-04-26T00:53:16.046Z,99.90
2019-04-26T00:55:47.000Z,99.90
2019-04-26T00:58:18.665Z,99.90
2019-04-26T01:00:48.897Z,99.90
2019-04-26T01:03:17.310Z,99.90
2019-04-26T01:05:45.685Z,99.90
2019-04-26T01:08:15.689Z,99.90
2019-04-26T01:10:44.189Z,99.90
2019-04-26T01:13:12.585Z,99.90
2019-04-26T01:15:40.974Z,99.90
2019-04-26T01:18:09.356Z,99.90
2019-04-26T01:20:40.160Z,99.90
2019-04-26T01:23:11.620Z,99.90
2019-04-26T01:25:45.869Z,99.90
2019-04-26T01:28:18.492Z,99.90
2019-04-26T01:30:48.264Z,99.90
2019-04-26T01:33:17.818Z,99.90
2019-04-26T01:35:47.976Z,99.90
2019-04-26T01:38:17.605Z,99.90
2019-04-26T01:40:47.717Z,99.90
2019-04-26T01:43:33.388Z,99.90
2019-04-26T01:46:15.497Z,99.90
2019-04-26T01:48:55.937Z,99.90
2019-04-26T01:51:38.933Z,99.90
2019-04-26T01:54:10.268Z,99.90
2019-04-26T01:56:38.724Z,99.90
2019-04-26T01:59:10.184Z,99.90
2019-04-26T02:01:44.108Z,99.90
2019-04-26T02:04:12.705Z,99.90
2019-04-26T02:06:41.092Z,99.90
2019-04-26T02:09:11.113Z,99.90
2019-04-26T02:11:41.429Z,99.90
2019-04-26T02:14:10.893Z,99.90
2019-04-26T02:16:40.104Z,99.90
2019-04-26T02:19:08.553Z,99.90
2019-04-26T02:21:42.204Z,99.90
2019-04-26T02:24:18.277Z,99.90
2019-04-26T02:26:49.799Z,99.90
2019-04-26T02:29:25.097Z,99.90
2019-04-26T02:31:57.361Z,99.90
2019-04-26T02:34:29.237Z,99.90
2019-04-26T02:36:59.515Z,99.90
2019-04-26T02:39:32.073Z,99.90
2019-04-26T02:42:04.160Z,99.90
2019-04-26T02:44:38.338Z,99.90
2019-04-26T02:47:34.130Z,99.90
2019-04-26T02:50:09.201Z,99.90
2019-04-26T02:52:52.390Z,99.90
2019-04-26T02:55:46.741Z,99.90
2019-04-26T02:58:17.025Z,99.90
2019-04-26T03:00:45.770Z,99.90
2019-04-26T03:03:36.345Z,99.90
2019-04-26T03:06:05.257Z,99.90
2019-04-26T03:08:37.769Z,99.90
2019-04-26T03:11:09.749Z,99.90
2019-04-26T03:13:48.832Z,99.90
2019-04-26T03:16:39.236Z,99.90
2019-04-26T03:19:15.703Z,99.90
2019-04-26T03:22:02.470Z,99.90
2019-04-26T03:24:35.061Z,99.90
2019-04-26T03:27:12.638Z,99.90
2019-04-26T03:30:19.042Z,99.90
2019-04-26T03:32:55.347Z,99.90
2019-04-26T03:35:56.516Z,99.90
2019-04-26T03:38:51.470Z,99.90
2019-04-26T03:41:38.351Z,99.90
2019-04-26T03:44:09.869Z,99.90
2019-04-26T03:46:56.525Z,99.90
2019-04-26T03:49:44.176Z,99.90
2019-04-26T03:52:37.974Z,99.90
2019-04-26T03:55:24.108Z,99.90
2019-04-26T03:58:06.204Z,99.90
2019-04-26T04:00:51.311Z,99.90
2019-04-26T04:03:26.810Z,99.90
2019-04-26T04:05:58.788Z,99.90
2019-04-26T04:09:05.102Z,99.90
2019-04-26T04:11:38.623Z,99.90
2019-04-26T04:14:45.014Z,99.90
2019-04-26T04:17:23.902Z,99.90
2019-04-26T04:20:11.615Z,99.90
2019-04-26T04:22:44.010Z,99.90
2019-04-26T04:25:19.088Z,99.90
2019-04-26T04:27:53.493Z,99.90
2019-04-26T04:30:30.724Z,99.90
2019-04-26T04:33:08.054Z,99.90
2019-04-26T04:35:41.741Z,99.90
2019-04-26T04:38:37.047Z,99.90
2019-04-26T04:41:16.208Z,99.90
2019-04-26T04:44:05.926Z,99.90
2019-04-26T04:46:54.241Z,99.90
2019-04-26T04:49:48.999Z,99.90
2019-04-26T04:52:24.456Z,99.90
2019-04-26T04:55:07.358Z,99.90
2019-04-26T04:57:44.009Z,99.90
2019-04-26T05:00:32.041Z,99.90
2019-04-26T05:03:35.477Z,99.90
2019-04-26T05:06:23.529Z,99.90
2019-04-26T05:09:09.424Z,99.90
2019-04-26T05:11:55.836Z,99.90
2019-04-26T05:14:59.410Z,99.90
2019-04-26T05:17:49.487Z,99.90
2019-04-26T05:20:36.391Z,99.90
2019-04-26T05:23:39.918Z,99.90
2019-04-26T05:26:37.377Z,99.90
2019-04-26T05:29:28.652Z,99.90
2019-04-26T05:32:17.072Z,99.90
2019-04-26T05:34:52.925Z,99.90
2019-04-26T05:37:37.243Z,99.90
2019-04-26T05:40:18.076Z,99.90
2019-04-26T05:43:14.445Z,99.90
2019-04-26T05:46:26.724Z,99.90
2019-04-26T05:49:19.074Z,99.90
2019-04-26T05:52:44.747Z,99.90
2019-04-26T05:55:43.351Z,99.90
2019-04-26T05:58:20.307Z,99.90
2019-04-26T06:01:14.417Z,99.90
2019-04-26T06:04:16.172Z,99.90
2019-04-26T06:06:57.826Z,99.90
2019-04-26T06:10:05.942Z,99.90
2019-04-26T06:12:44.683Z,99.90
2019-04-26T06:15:36.979Z,99.90
2019-04-26T06:18:21.945Z,99.90
2019-04-26T06:20:54.126Z,99.90
2019-04-26T06:23:53.933Z,99.90
2019-04-26T06:26:36.277Z,99.90
2019-04-26T06:29:07.720Z,99.90
2019-04-26T06:31:48.397Z,99.90
2019-04-26T06:34:22.456Z,99.90
2019-04-26T06:36:56.104Z,99.90
2019-04-26T06:39:31.712Z,99.90
2019-04-26T06:42:24.021Z,99.90
2019-04-26T06:45:23.681Z,99.90
2019-04-26T06:48:03.927Z,99.90
2019-04-26T06:50:40.773Z,99.90
2019-04-26T06:53:24.409Z,99.90
2019-04-26T06:56:03.381Z,99.90
2019-04-26T06:59:03.418Z,99.90
2019-04-26T07:01:37.937Z,99.90
2019-04-26T07:04:09.984Z,99.90
2019-04-26T07:07:04.613Z,99.90
2019-04-26T07:09:37.936Z,99.90
2019-04-26T07:12:25.622Z,99.90
2019-04-26T07:15:03.838Z,99.90
2019-04-26T07:17:50.892Z,99.90
2019-04-26T07:20:38.924Z,99.90
2019-04-26T07:23:12.687Z,99.90
2019-04-26T07:26:08.992Z,99.90
2019-04-26T07:28:47.821Z,99.90
2019-04-26T07:31:33.670Z,99.90
2019-04-26T07:34:15.050Z,99.90
2019-04-26T07:37:19.984Z,99.90
2019-04-26T07:40:11.473Z,99.90
2019-04-26T07:43:21.399Z,99.90
2019-04-26T07:46:08.081Z,99.90
2019-04-26T07:49:01.703Z,99.90
2019-04-26T07:52:06.540Z,99.90
2019-04-26T07:54:44.150Z,99.90
2019-04-26T07:57:44.365Z,99.90
2019-04-26T08:00:17.514Z,99.90
2019-04-26T08:02:53.018Z,99.90
2019-04-26T08:05:35.102Z,99.90
2019-04-26T08:08:08.683Z,99.90
2019-04-26T08:10:40.855Z,99.90
2019-04-26T08:13:15.283Z,99.90
2019-04-26T08:16:00.730Z,99.90
2019-04-26T08:18:39.975Z,99.90
2019-04-26T08:21:18.153Z,99.90
2019-04-26T08:23:52.482Z,99.90
2019-04-26T08:26:26.258Z,99.90
2019-04-26T08:29:00.486Z,99.90
2019-04-26T08:31:31.061Z,99.90
2019-04-26T08:34:07.486Z,99.90
2019-04-26T08:36:41.091Z,99.90
2019-04-26T08:39:45.525Z,99.90
2019-04-26T08:42:20.068Z,99.90
2019-04-26T08:44:48.094Z,99.90
2019-04-26T08:47:25.846Z,99.90
2019-04-26T08:50:11.094Z,99.90
2019-04-26T08:52:41.344Z,99.90
2019-04-26T08:55:12.168Z,99.90
2019-04-26T08:57:43.642Z,99.90
2019-04-26T09:00:16.753Z,99.90
2019-04-26T09:02:49.869Z,99.90
2019-04-26T09:05:31.841Z,99.90
2019-04-26T09:08:04.009Z,99.90
2019-04-26T09:10:39.280Z,99.90
2019-04-26T09:13:09.354Z,99.90
2019-04-26T09:16:11.855Z,99.90
2019-04-26T09:18:43.334Z,99.90
2019-04-26T09:21:13.283Z,99.90
2019-04-26T09:24:00.950Z,99.90
2019-04-26T09:26:42.483Z,99.90
2019-04-26T09:29:12.519Z,99.90
2019-04-26T09:31:55.408Z,99.90
2019-04-26T09:34:25.473Z,99.90
2019-04-26T09:36:53.873Z,99.90
2019-04-26T09:39:24.020Z,99.90
2019-04-26T09:41:54.060Z,99.90
2019-04-26T09:44:41.326Z,99.90
2019-04-26T09:47:20.043Z,99.90
2019-04-26T09:50:06.593Z,99.90
2019-04-26T09:52:36.625Z,99.90
2019-04-26T09:55:07.751Z,99.90
2019-04-26T09:57:36.156Z,99.20
2019-04-26T10:00:10.318Z,96.70
2019-04-26T10:02:37.869Z,94.70
2019-04-26T10:05:11.529Z,95.40
2019-04-26T10:07:38.924Z,95.80
2019-04-26T10:10:09.290Z,96.10
2019-04-26T10:12:55.444Z,96.60
2019-04-26T10:15:28.424Z,97.10
2019-04-26T10:17:58.286Z,98.30
2019-04-26T10:20:26.682Z,96.90
2019-04-26T10:22:55.064Z,96.10
2019-04-26T10:25:23.472Z,92.70
2019-04-26T10:27:51.860Z,91.10
2019-04-26T10:30:20.320Z,83.90
2019-04-26T10:32:48.716Z,77.20
2019-04-26T10:35:17.661Z,82.00
2019-04-26T10:37:52.921Z,80.50
2019-04-26T10:40:21.329Z,84.50
2019-04-26T10:42:49.717Z,90.00
2019-04-26T10:45:19.745Z,91.10
2019-04-26T10:47:48.148Z,93.70
2019-04-26T10:50:17.468Z,93.80
2019-04-26T10:52:53.701Z,93.80
2019-04-26T10:55:23.082Z,93.70
2019-04-26T10:58:09.191Z,93.90
2019-04-26T11:00:58.876Z,93.30
2019-04-26T11:03:27.297Z,88.50
2019-04-26T11:05:55.649Z,82.50
2019-04-26T11:08:24.040Z,78.50
2019-04-26T11:10:52.432Z,73.30
2019-04-26T11:13:20.838Z,75.60
2019-04-26T11:15:50.057Z,81.40
2019-04-26T11:18:19.779Z,75.60
2019-04-26T11:20:48.552Z,70.70
2019-04-26T11:23:16.954Z,70.60
2019-04-26T11:25:45.328Z,64.90
2019-04-26T11:28:17.322Z,64.90
2019-04-26T11:30:43.997Z,62.20
2019-04-26T11:33:12.756Z,62.20
2019-04-26T11:35:41.714Z,61.40
2019-04-26T11:38:10.197Z,64.40
2019-04-26T11:40:38.652Z,63.90
2019-04-26T11:43:07.036Z,60.20
2019-04-26T11:45:35.434Z,58.70
2019-04-26T11:48:03.813Z,58.70
2019-04-26T11:50:32.217Z,58.20
2019-04-26T11:53:00.613Z,57.40
2019-04-26T11:55:29.671Z,59.00
2019-04-26T11:57:59.112Z,60.70
2019-04-26T12:00:29.138Z,61.70
2019-04-26T12:02:57.600Z,62.90
2019-04-26T12:05:30.435Z,66.30
2019-04-26T12:08:03.298Z,61.50
2019-04-26T12:10:31.703Z,60.00
2019-04-26T12:13:05.966Z,59.80
2019-04-26T12:15:30.741Z,61.10
2019-04-26T12:17:59.781Z,59.00
2019-04-26T12:20:28.485Z,60.00
2019-04-26T12:22:57.432Z,62.10
2019-04-26T12:25:25.840Z,65.70
2019-04-26T12:27:54.385Z,66.00
2019-04-26T12:30:26.625Z,61.90
2019-04-26T12:32:53.524Z,59.80
2019-04-26T12:35:21.916Z,58.20
2019-04-26T12:37:50.646Z,60.00
2019-04-26T12:40:20.429Z,59.10
2019-04-26T12:42:48.899Z,62.20
2019-04-26T12:45:31.082Z,59.80
2019-04-26T12:48:01.119Z,61.20
2019-04-26T12:50:35.049Z,60.90
2019-04-26T12:52:59.626Z,60.10
2019-04-26T12:55:28.018Z,59.70
2019-04-26T12:57:56.411Z,58.60
2019-04-26T13:00:26.437Z,59.00
2019-04-26T13:02:55.852Z,58.50
2019-04-26T13:05:24.896Z,60.70
2019-04-26T13:07:54.958Z,61.30
2019-04-26T13:10:39.985Z,61.80
2019-04-26T13:13:16.052Z,60.00
2019-04-26T13:16:04.374Z,62.10
2019-04-26T13:18:32.772Z,63.30
2019-04-26T13:21:03.031Z,64.00
2019-04-26T13:23:31.434Z,62.60
2019-04-26T13:26:01.445Z,62.90
2019-04-26T13:28:29.988Z,64.00
2019-04-26T13:30:58.457Z,64.40
2019-04-26T13:33:27.873Z,59.70
2019-04-26T13:36:04.393Z,57.90
2019-04-26T13:38:27.346Z,57.20
2019-04-26T13:40:59.450Z,56.70
2019-04-26T13:43:26.971Z,59.80
2019-04-26T13:45:57.599Z,62.80
2019-04-26T13:48:45.323Z,62.30
2019-04-26T13:51:30.469Z,62.90
2019-04-26T13:53:58.854Z,60.60
2019-04-26T13:56:47.793Z,61.20
2019-04-26T13:59:16.181Z,67.20
2019-04-26T14:01:44.719Z,68.00
2019-04-26T14:04:13.200Z,69.70
2019-04-26T14:06:45.779Z,65.20
2019-04-26T14:09:15.846Z,61.60
2019-04-26T14:11:44.297Z,58.50
2019-04-26T14:14:13.565Z,53.60
2019-04-26T14:16:42.108Z,54.40
2019-04-26T14:19:14.438Z,56.60
2019-04-26T14:21:40.688Z,58.80
2019-04-26T14:24:25.704Z,61.80
2019-04-26T14:26:55.731Z,65.40
2019-04-26T14:29:24.451Z,64.80
2019-04-26T14:31:53.158Z,60.60
2019-04-26T14:34:22.366Z,58.90
2019-04-26T14:36:50.767Z,52.50
2019-04-26T14:39:20.997Z,50.50
2019-04-26T14:41:52.757Z,49.60
2019-04-26T14:44:19.452Z,51.60
2019-04-26T14:46:48.994Z,51.20
2019-04-26T14:49:19.244Z,50.50
2019-04-26T14:51:50.825Z,53.30
2019-04-26T14:54:18.285Z,54.10
2019-04-26T14:56:52.378Z,58.70
2019-04-26T14:59:18.433Z,62.10
2019-04-26T15:01:52.296Z,63.70
2019-04-26T15:04:34.760Z,65.80
2019-04-26T15:07:05.681Z,70.30
2019-04-26T15:09:36.534Z,73.20
2019-04-26T15:12:07.635Z,71.20
2019-04-26T15:14:35.012Z,71.10
2019-04-26T15:17:03.442Z,75.50
2019-04-26T15:19:35.040Z,75.10
2019-04-26T15:22:04.073Z,82.50
2019-04-26T15:24:35.115Z,82.20
2019-04-26T15:27:03.359Z,88.00
2019-04-26T15:29:32.806Z,92.50
2019-04-26T15:32:03.169Z,96.10
2019-04-26T15:34:31.295Z,98.10
2019-04-26T15:36:59.718Z,98.30
2019-04-26T15:39:35.669Z,99.90
2019-04-26T15:42:17.560Z,99.90
2019-04-26T15:44:57.572Z,99.90
2019-04-26T15:47:37.331Z,99.90
2019-04-26T15:50:14.452Z,99.90
2019-04-26T15:52:43.887Z,99.90
2019-04-26T15:55:13.325Z,99.90
2019-04-26T15:57:43.300Z,99.90
2019-04-26T16:00:12.609Z,99.90
2019-04-26T16:02:42.751Z,99.90
2019-04-26T16:05:12.362Z,99.90
2019-04-26T16:07:42.968Z,99.90
2019-04-26T16:10:12.198Z,99.90
2019-04-26T16:12:42.254Z,99.90
2019-04-26T16:15:14.720Z,99.10
2019-04-26T16:17:41.319Z,99.40
2019-04-26T16:20:11.902Z,99.20
2019-04-26T16:22:40.654Z,97.90
2019-04-26T16:25:10.002Z,99.00
2019-04-26T16:27:38.403Z,95.50
2019-04-26T16:30:19.075Z,94.10
2019-04-26T16:32:54.080Z,96.10
2019-04-26T16:35:28.050Z,96.10
2019-04-26T16:37:53.946Z,96.00
2019-04-26T16:40:23.945Z,94.80
2019-04-26T16:42:56.581Z,93.80
2019-04-26T16:45:22.764Z,94.90
2019-04-26T16:47:52.633Z,96.30
2019-04-26T16:50:24.097Z,95.90
2019-04-26T16:52:51.420Z,95.90
2019-04-26T16:55:21.352Z,96.80
2019-04-26T16:57:55.658Z,98.50
2019-04-26T17:00:20.295Z,98.80
2019-04-26T17:02:52.621Z,99.90
2019-04-26T17:05:35.570Z,99.90
2019-04-26T17:07:53.737Z,99.90
2019-04-26T17:10:23.426Z,99.60
2019-04-26T17:12:52.325Z,99.80
2019-04-26T17:15:22.154Z,99.90
2019-04-26T17:17:52.641Z,99.90
2019-04-26T17:20:21.274Z,99.90
2019-04-26T17:22:59.397Z,99.90
2019-04-26T17:25:27.014Z,99.90
2019-04-26T17:27:56.016Z,99.90
2019-04-26T17:30:26.055Z,99.90
2019-04-26T17:32:55.374Z,99.80
2019-04-26T17:35:25.383Z,99.70
2019-04-26T17:37:57.518Z,99.70
2019-04-26T17:40:25.449Z,99.90
2019-04-26T17:42:56.037Z,99.90
2019-04-26T17:45:24.491Z,99.90
2019-04-26T17:47:53.076Z,99.90
2019-04-26T17:50:22.057Z,99.40
2019-04-26T17:52:51.563Z,99.90
2019-04-26T17:55:20.611Z,99.90
2019-04-26T17:57:50.699Z,99.90
2019-04-26T18:00:26.745Z,99.90
2019-04-26T18:02:51.297Z,99.90
2019-04-26T18:05:24.472Z,99.90
2019-04-26T18:07:56.572Z,99.90
2019-04-26T18:10:20.915Z,99.90
2019-04-26T18:12:50.790Z,99.90
2019-04-26T18:15:19.650Z,99.90
2019-04-26T18:17:51.197Z,99.90
2019-04-26T18:20:37.400Z,99.90
2019-04-26T18:23:18.622Z,99.90
2019-04-26T18:25:46.583Z,99.90
2019-04-26T18:28:17.854Z,99.90
2019-04-26T18:30:47.671Z,99.90
2019-04-26T18:33:17.576Z,99.90
2019-04-26T18:35:49.322Z,99.90
2019-04-26T18:38:16.489Z,99.90
2019-04-26T18:40:59.830Z,99.90
2019-04-26T18:43:18.848Z,99.90
2019-04-26T18:45:46.802Z,99.90
2019-04-26T18:48:15.189Z,99.90
2019-04-26T18:50:45.733Z,99.90
2019-04-26T18:53:15.367Z,99.90
2019-04-26T18:55:48.378Z,99.90
2019-04-26T18:58:16.770Z,99.90
2019-04-26T19:00:45.500Z,99.90
2019-04-26T19:03:15.882Z,99.90
2019-04-26T19:05:44.029Z,99.90
2019-04-26T19:08:14.818Z,99.90
2019-04-26T19:10:43.686Z,99.90
2019-04-26T19:13:22.186Z,99.90
2019-04-26T19:15:53.098Z,99.90
2019-04-26T19:18:23.117Z,99.90
2019-04-26T19:20:55.645Z,99.90
2019-04-26T19:23:28.991Z,99.90
2019-04-26T19:25:54.222Z,99.90
2019-04-26T19:28:22.624Z,99.90
2019-04-26T19:30:53.146Z,99.90
2019-04-26T19:33:21.561Z,99.90
2019-04-26T19:35:50.624Z,99.90
2019-04-26T19:38:19.020Z,99.90
2019-04-26T19:40:48.120Z,99.90
2019-04-26T19:43:28.154Z,99.90
2019-04-26T19:45:48.977Z,99.90
2019-04-26T19:48:20.694Z,99.90
2019-04-26T19:51:06.817Z,99.90
2019-04-26T19:53:36.852Z,99.90
2019-04-26T19:56:06.893Z,99.90
2019-04-26T19:58:45.787Z,99.90
2019-04-26T20:01:07.139Z,99.90
2019-04-26T20:03:35.510Z,99.90
2019-04-26T20:06:05.016Z,99.90
2019-04-26T20:08:35.458Z,99.90
2019-04-26T20:11:03.681Z,99.90
2019-04-26T20:13:32.088Z,99.90
2019-04-26T20:16:02.691Z,99.90
2019-04-26T20:18:34.472Z,99.90
2019-04-26T20:21:02.384Z,99.90
2019-04-26T20:23:33.631Z,99.90
2019-04-26T20:26:06.932Z,99.90
2019-04-26T20:28:35.877Z,99.90
2019-04-26T20:31:19.113Z,99.90
2019-04-26T20:33:47.874Z,99.90
2019-04-26T20:36:16.776Z,99.90
2019-04-26T20:38:47.358Z,99.90
2019-04-26T20:41:15.309Z,99.90
2019-04-26T20:43:48.456Z,99.90
2019-04-26T20:46:15.536Z,99.90
2019-04-26T20:48:44.840Z,99.90
2019-04-26T20:51:13.232Z,99.90
2019-04-26T20:53:43.689Z,99.90
2019-04-26T20:56:16.639Z,99.90
2019-04-26T20:58:43.136Z,99.90
2019-04-26T21:01:15.156Z,99.90
2019-04-26T21:03:45.955Z,99.90
2019-04-26T21:06:13.736Z,99.90
2019-04-26T21:08:42.497Z,99.90
2019-04-26T21:11:13.748Z,99.90
2019-04-26T21:13:41.697Z,99.90
2019-04-26T21:16:14.379Z,99.90
2019-04-26T21:18:44.002Z,99.90
2019-04-26T21:21:11.887Z,99.90
2019-04-26T21:23:42.211Z,99.90
2019-04-26T21:26:16.514Z,99.90
2019-04-26T21:28:47.165Z,99.90
2019-04-26T21:31:17.330Z,99.90
2019-04-26T21:33:47.449Z,99.90
2019-04-26T21:36:26.352Z,99.90
2019-04-26T21:38:59.344Z,99.90
2019-04-26T21:41:30.572Z,99.90
2019-04-26T21:43:58.989Z,99.90
2019-04-26T21:46:28.837Z,99.90
2019-04-26T21:48:57.458Z,99.90
2019-04-26T21:51:25.924Z,99.90
2019-04-26T21:53:54.328Z,99.90
2019-04-26T21:56:23.524Z,99.90
2019-04-26T21:58:53.293Z,99.90
2019-04-26T22:01:25.294Z,99.90
2019-04-26T22:03:58.163Z,99.90
2019-04-26T22:06:28.254Z,99.90
2019-04-26T22:11:53.260Z,99.90
2019-04-26T22:14:21.607Z,99.90
2019-04-26T22:16:57.562Z,99.90
2019-04-26T22:19:32.534Z,99.90
2019-04-26T22:22:15.338Z,99.90
2019-04-26T22:24:51.405Z,99.90
2019-04-26T22:27:21.860Z,99.90
2019-04-26T22:29:51.941Z,99.90
2019-04-26T22:32:20.039Z,99.90
2019-04-26T22:34:48.501Z,99.90
2019-04-26T22:37:29.095Z,99.90
2019-04-26T22:39:47.087Z,99.90
2019-04-26T22:42:17.046Z,99.90
2019-04-26T22:44:49.762Z,99.90
2019-04-26T22:47:19.797Z,99.90
2019-04-26T22:49:48.177Z,99.90
2019-04-26T22:52:16.799Z,99.90
2019-04-26T22:54:46.776Z,99.90
2019-04-26T22:57:16.410Z,99.90
2019-04-26T22:59:49.995Z,99.90
2019-04-26T23:02:18.266Z,99.90
2019-04-26T23:04:47.389Z,99.90
2019-04-26T23:07:18.529Z,99.90
2019-04-26T23:09:51.887Z,99.90
2019-04-26T23:12:27.978Z,99.90
2019-04-26T23:14:55.149Z,99.90
2019-04-26T23:17:32.878Z,99.90
2019-04-26T23:20:14.988Z,99.90
2019-04-26T23:22:43.406Z,99.90
2019-04-26T23:25:13.554Z,99.90
2019-04-26T23:27:43.495Z,99.90
2019-04-26T23:30:13.656Z,99.90
2019-04-26T23:32:43.463Z,99.90
2019-04-26T23:35:13.727Z,99.90
2019-04-26T23:37:42.279Z,99.90
2019-04-26T23:40:11.421Z,99.90
2019-04-26T23:42:39.796Z,99.90
2019-04-26T23:45:10.930Z,99.90
2019-04-26T23:47:39.040Z,99.90
2019-04-26T23:50:08.161Z,99.90
2019-04-26T23:52:36.534Z,99.90
2019-04-26T23:55:08.661Z,99.90
2019-04-26T23:57:36.410Z,99.90
